sensor_id;sensor_type;location;lat;lon;timestamp;P1;durP1;ratioP1;P2;durP2;ratioP2
34200;SDS011;20469;55.638;37.670;2023-12-07T00:00:29;31.87;;;16.93;;
34200;SDS011;20469;55.638;37.670;2023-12-07T00:02:57;36.37;;;18.70;;
34200;SDS011;20469;55.638;37.670;2023-12-07T00:05:26;30.13;;;16.57;;
34200;SDS011;20469;55.638;37.670;2023-12-07T00:07:54;31.73;;;17.23;;
34200;SDS011;20469;55.638;37.670;2023-12-07T00:10:22;33.83;;;17.27;;
34200;SDS011;20469;55.638;37.670;2023-12-07T00:12:50;35.73;;;17.63;;
34200;SDS011;20469;55.638;37.670;2023-12-07T00:15:18;31.97;;;17.20;;
34200;SDS011;20469;55.638;37.670;2023-12-07T00:17:45;33.67;;;18.27;;
34200;SDS011;20469;55.638;37.670;2023-12-07T00:20:13;33.37;;;18.53;;
34200;SDS011;20469;55.638;37.670;2023-12-07T00:22:42;31.87;;;17.93;;
34200;SDS011;20469;55.638;37.670;2023-12-07T00:25:09;30.47;;;15.87;;
34200;SDS011;20469;55.638;37.670;2023-12-07T00:27:37;31.20;;;16.70;;
34200;SDS011;20469;55.638;37.670;2023-12-07T00:30:05;35.43;;;18.10;;
34200;SDS011;20469;55.638;37.670;2023-12-07T00:32:33;33.17;;;16.50;;
34200;SDS011;20469;55.638;37.670;2023-12-07T00:35:01;33.70;;;17.17;;
34200;SDS011;20469;55.638;37.670;2023-12-07T00:37:29;30.37;;;17.10;;
34200;SDS011;20469;55.638;37.670;2023-12-07T00:39:57;33.97;;;17.03;;
34200;SDS011;20469;55.638;37.670;2023-12-07T00:42:25;29.83;;;16.60;;
34200;SDS011;20469;55.638;37.670;2023-12-07T00:44:53;33.27;;;17.17;;
34200;SDS011;20469;55.638;37.670;2023-12-07T00:47:20;31.27;;;17.40;;
34200;SDS011;20469;55.638;37.670;2023-12-07T00:49:48;30.50;;;17.67;;
34200;SDS011;20469;55.638;37.670;2023-12-07T00:52:16;36.77;;;18.47;;
34200;SDS011;20469;55.638;37.670;2023-12-07T00:54:44;36.00;;;19.87;;
34200;SDS011;20469;55.638;37.670;2023-12-07T00:57:12;34.57;;;18.07;;
34200;SDS011;20469;55.638;37.670;2023-12-07T00:59:40;31.33;;;18.23;;
34200;SDS011;20469;55.638;37.670;2023-12-07T01:02:07;34.03;;;18.50;;
34200;SDS011;20469;55.638;37.670;2023-12-07T01:04:35;38.57;;;19.80;;
34200;SDS011;20469;55.638;37.670;2023-12-07T01:07:03;38.73;;;20.00;;
34200;SDS011;20469;55.638;37.670;2023-12-07T01:09:31;36.30;;;18.67;;
34200;SDS011;20469;55.638;37.670;2023-12-07T01:11:59;36.00;;;19.07;;
34200;SDS011;20469;55.638;37.670;2023-12-07T01:14:27;36.53;;;18.40;;
34200;SDS011;20469;55.638;37.670;2023-12-07T01:16:55;36.27;;;18.50;;
34200;SDS011;20469;55.638;37.670;2023-12-07T01:19:22;34.73;;;17.47;;
34200;SDS011;20469;55.638;37.670;2023-12-07T01:21:52;36.97;;;18.80;;
34200;SDS011;20469;55.638;37.670;2023-12-07T01:24:19;32.70;;;18.10;;
34200;SDS011;20469;55.638;37.670;2023-12-07T01:26:47;33.53;;;18.63;;
34200;SDS011;20469;55.638;37.670;2023-12-07T01:29:15;36.10;;;19.13;;
34200;SDS011;20469;55.638;37.670;2023-12-07T01:31:42;33.87;;;18.33;;
34200;SDS011;20469;55.638;37.670;2023-12-07T01:34:10;37.90;;;19.17;;
34200;SDS011;20469;55.638;37.670;2023-12-07T01:36:38;35.03;;;16.93;;
34200;SDS011;20469;55.638;37.670;2023-12-07T01:39:06;36.53;;;18.57;;
34200;SDS011;20469;55.638;37.670;2023-12-07T01:41:38;33.50;;;17.70;;
34200;SDS011;20469;55.638;37.670;2023-12-07T01:44:06;35.13;;;17.83;;
34200;SDS011;20469;55.638;37.670;2023-12-07T01:46:33;33.63;;;18.07;;
34200;SDS011;20469;55.638;37.670;2023-12-07T01:49:01;32.67;;;16.60;;
34200;SDS011;20469;55.638;37.670;2023-12-07T01:51:30;35.30;;;19.07;;
34200;SDS011;20469;55.638;37.670;2023-12-07T01:53:58;33.00;;;17.47;;
34200;SDS011;20469;55.638;37.670;2023-12-07T01:56:26;30.30;;;16.90;;
34200;SDS011;20469;55.638;37.670;2023-12-07T01:58:54;35.47;;;16.50;;
34200;SDS011;20469;55.638;37.670;2023-12-07T02:01:22;32.67;;;15.67;;
34200;SDS011;20469;55.638;37.670;2023-12-07T02:03:50;31.60;;;16.17;;
34200;SDS011;20469;55.638;37.670;2023-12-07T02:06:18;28.33;;;15.07;;
34200;SDS011;20469;55.638;37.670;2023-12-07T02:08:47;27.23;;;14.07;;
34200;SDS011;20469;55.638;37.670;2023-12-07T02:11:15;31.87;;;15.13;;
34200;SDS011;20469;55.638;37.670;2023-12-07T02:13:42;26.13;;;13.87;;
34200;SDS011;20469;55.638;37.670;2023-12-07T02:16:15;25.90;;;14.00;;
34200;SDS011;20469;55.638;37.670;2023-12-07T02:18:48;27.27;;;13.67;;
34200;SDS011;20469;55.638;37.670;2023-12-07T02:21:22;29.50;;;14.30;;
34200;SDS011;20469;55.638;37.670;2023-12-07T02:23:52;24.53;;;13.00;;
34200;SDS011;20469;55.638;37.670;2023-12-07T02:26:27;27.03;;;13.83;;
34200;SDS011;20469;55.638;37.670;2023-12-07T02:28:55;25.63;;;13.63;;
34200;SDS011;20469;55.638;37.670;2023-12-07T02:31:23;24.90;;;13.40;;
34200;SDS011;20469;55.638;37.670;2023-12-07T02:33:51;26.50;;;13.50;;
34200;SDS011;20469;55.638;37.670;2023-12-07T02:36:19;25.37;;;13.83;;
34200;SDS011;20469;55.638;37.670;2023-12-07T02:38:49;32.00;;;15.47;;
34200;SDS011;20469;55.638;37.670;2023-12-07T02:41:18;26.83;;;14.67;;
34200;SDS011;20469;55.638;37.670;2023-12-07T02:43:47;27.77;;;13.47;;
34200;SDS011;20469;55.638;37.670;2023-12-07T02:46:15;24.43;;;12.73;;
34200;SDS011;20469;55.638;37.670;2023-12-07T02:48:43;31.37;;;14.63;;
34200;SDS011;20469;55.638;37.670;2023-12-07T02:51:11;24.40;;;13.37;;
34200;SDS011;20469;55.638;37.670;2023-12-07T02:53:38;24.53;;;13.13;;
34200;SDS011;20469;55.638;37.670;2023-12-07T02:56:06;24.97;;;13.30;;
34200;SDS011;20469;55.638;37.670;2023-12-07T02:58:34;23.37;;;12.73;;
34200;SDS011;20469;55.638;37.670;2023-12-07T03:01:02;27.70;;;13.03;;
34200;SDS011;20469;55.638;37.670;2023-12-07T03:03:30;23.43;;;13.13;;
34200;SDS011;20469;55.638;37.670;2023-12-07T03:05:58;28.00;;;14.17;;
34200;SDS011;20469;55.638;37.670;2023-12-07T03:08:26;29.40;;;14.57;;
34200;SDS011;20469;55.638;37.670;2023-12-07T03:10:54;26.20;;;12.77;;
34200;SDS011;20469;55.638;37.670;2023-12-07T03:13:22;29.13;;;14.00;;
34200;SDS011;20469;55.638;37.670;2023-12-07T03:15:50;26.27;;;13.63;;
34200;SDS011;20469;55.638;37.670;2023-12-07T03:18:18;28.10;;;13.27;;
34200;SDS011;20469;55.638;37.670;2023-12-07T03:20:46;27.13;;;14.53;;
34200;SDS011;20469;55.638;37.670;2023-12-07T03:23:14;28.13;;;13.97;;
34200;SDS011;20469;55.638;37.670;2023-12-07T03:25:42;27.30;;;13.83;;
34200;SDS011;20469;55.638;37.670;2023-12-07T03:28:12;25.23;;;13.97;;
34200;SDS011;20469;55.638;37.670;2023-12-07T03:30:39;26.03;;;13.30;;
34200;SDS011;20469;55.638;37.670;2023-12-07T03:33:07;25.70;;;13.97;;
34200;SDS011;20469;55.638;37.670;2023-12-07T03:35:35;26.73;;;14.53;;
34200;SDS011;20469;55.638;37.670;2023-12-07T03:38:03;23.63;;;12.33;;
34200;SDS011;20469;55.638;37.670;2023-12-07T03:40:31;23.27;;;12.40;;
34200;SDS011;20469;55.638;37.670;2023-12-07T03:42:59;22.17;;;12.67;;
34200;SDS011;20469;55.638;37.670;2023-12-07T03:45:27;24.33;;;12.40;;
34200;SDS011;20469;55.638;37.670;2023-12-07T03:47:55;22.57;;;12.37;;
34200;SDS011;20469;55.638;37.670;2023-12-07T03:50:23;22.43;;;12.50;;
34200;SDS011;20469;55.638;37.670;2023-12-07T03:52:51;23.00;;;12.77;;
34200;SDS011;20469;55.638;37.670;2023-12-07T03:55:18;24.50;;;13.43;;
34200;SDS011;20469;55.638;37.670;2023-12-07T03:57:46;27.00;;;13.97;;
34200;SDS011;20469;55.638;37.670;2023-12-07T04:00:14;26.07;;;13.27;;
34200;SDS011;20469;55.638;37.670;2023-12-07T04:02:42;23.97;;;12.93;;
34200;SDS011;20469;55.638;37.670;2023-12-07T04:05:10;28.67;;;15.70;;
34200;SDS011;20469;55.638;37.670;2023-12-07T04:07:39;28.70;;;14.87;;
34200;SDS011;20469;55.638;37.670;2023-12-07T04:10:07;23.90;;;13.17;;
34200;SDS011;20469;55.638;37.670;2023-12-07T04:12:37;30.10;;;14.93;;
34200;SDS011;20469;55.638;37.670;2023-12-07T04:15:05;28.17;;;14.10;;
34200;SDS011;20469;55.638;37.670;2023-12-07T04:17:33;25.93;;;13.73;;
34200;SDS011;20469;55.638;37.670;2023-12-07T04:20:01;26.90;;;13.60;;
34200;SDS011;20469;55.638;37.670;2023-12-07T04:22:29;31.30;;;14.30;;
34200;SDS011;20469;55.638;37.670;2023-12-07T04:24:57;26.33;;;13.97;;
34200;SDS011;20469;55.638;37.670;2023-12-07T04:27:25;25.43;;;13.63;;
34200;SDS011;20469;55.638;37.670;2023-12-07T04:29:54;25.97;;;13.00;;
34200;SDS011;20469;55.638;37.670;2023-12-07T04:32:23;25.50;;;13.83;;
34200;SDS011;20469;55.638;37.670;2023-12-07T04:34:52;27.63;;;13.53;;
34200;SDS011;20469;55.638;37.670;2023-12-07T04:37:20;21.70;;;11.50;;
34200;SDS011;20469;55.638;37.670;2023-12-07T04:39:48;30.10;;;14.60;;
34200;SDS011;20469;55.638;37.670;2023-12-07T04:42:16;25.17;;;12.37;;
34200;SDS011;20469;55.638;37.670;2023-12-07T04:44:44;26.03;;;14.00;;
34200;SDS011;20469;55.638;37.670;2023-12-07T04:47:11;27.13;;;13.63;;
34200;SDS011;20469;55.638;37.670;2023-12-07T04:49:39;25.17;;;13.93;;
34200;SDS011;20469;55.638;37.670;2023-12-07T04:52:07;26.17;;;12.97;;
34200;SDS011;20469;55.638;37.670;2023-12-07T04:54:35;25.60;;;12.77;;
34200;SDS011;20469;55.638;37.670;2023-12-07T04:57:03;23.77;;;13.13;;
34200;SDS011;20469;55.638;37.670;2023-12-07T04:59:31;27.30;;;13.13;;
34200;SDS011;20469;55.638;37.670;2023-12-07T05:01:58;24.77;;;12.83;;
34200;SDS011;20469;55.638;37.670;2023-12-07T05:04:27;25.83;;;13.57;;
34200;SDS011;20469;55.638;37.670;2023-12-07T05:06:55;25.90;;;13.50;;
34200;SDS011;20469;55.638;37.670;2023-12-07T05:09:23;22.50;;;13.10;;
34200;SDS011;20469;55.638;37.670;2023-12-07T05:11:51;25.43;;;13.20;;
34200;SDS011;20469;55.638;37.670;2023-12-07T05:14:19;27.67;;;13.90;;
34200;SDS011;20469;55.638;37.670;2023-12-07T05:16:46;25.83;;;13.97;;
34200;SDS011;20469;55.638;37.670;2023-12-07T05:19:15;25.53;;;13.47;;
34200;SDS011;20469;55.638;37.670;2023-12-07T05:21:42;28.03;;;13.37;;
34200;SDS011;20469;55.638;37.670;2023-12-07T05:24:11;25.90;;;13.40;;
34200;SDS011;20469;55.638;37.670;2023-12-07T05:26:40;29.20;;;13.63;;
34200;SDS011;20469;55.638;37.670;2023-12-07T05:29:08;26.77;;;13.30;;
34200;SDS011;20469;55.638;37.670;2023-12-07T05:31:36;28.20;;;13.10;;
34200;SDS011;20469;55.638;37.670;2023-12-07T05:34:04;26.50;;;13.70;;
34200;SDS011;20469;55.638;37.670;2023-12-07T05:36:32;28.97;;;14.07;;
34200;SDS011;20469;55.638;37.670;2023-12-07T05:39:00;27.47;;;14.53;;
34200;SDS011;20469;55.638;37.670;2023-12-07T05:41:28;23.50;;;12.90;;
34200;SDS011;20469;55.638;37.670;2023-12-07T05:43:56;24.67;;;13.03;;
34200;SDS011;20469;55.638;37.670;2023-12-07T05:46:23;27.80;;;13.03;;
34200;SDS011;20469;55.638;37.670;2023-12-07T05:48:51;24.73;;;13.23;;
34200;SDS011;20469;55.638;37.670;2023-12-07T05:51:23;25.87;;;12.77;;
34200;SDS011;20469;55.638;37.670;2023-12-07T05:53:51;26.17;;;14.20;;
34200;SDS011;20469;55.638;37.670;2023-12-07T05:56:19;27.03;;;13.97;;
34200;SDS011;20469;55.638;37.670;2023-12-07T05:58:47;28.33;;;13.30;;
34200;SDS011;20469;55.638;37.670;2023-12-07T06:01:18;25.07;;;13.30;;
34200;SDS011;20469;55.638;37.670;2023-12-07T06:03:46;26.03;;;13.47;;
34200;SDS011;20469;55.638;37.670;2023-12-07T06:06:14;28.60;;;14.47;;
34200;SDS011;20469;55.638;37.670;2023-12-07T06:08:42;27.47;;;13.60;;
34200;SDS011;20469;55.638;37.670;2023-12-07T06:11:11;27.70;;;14.30;;
34200;SDS011;20469;55.638;37.670;2023-12-07T06:13:38;32.23;;;15.07;;
34200;SDS011;20469;55.638;37.670;2023-12-07T06:16:06;30.03;;;13.37;;
34200;SDS011;20469;55.638;37.670;2023-12-07T06:18:35;29.57;;;14.20;;
34200;SDS011;20469;55.638;37.670;2023-12-07T06:21:04;30.73;;;15.43;;
34200;SDS011;20469;55.638;37.670;2023-12-07T06:23:33;29.13;;;14.30;;
34200;SDS011;20469;55.638;37.670;2023-12-07T06:26:01;28.10;;;14.20;;
34200;SDS011;20469;55.638;37.670;2023-12-07T06:28:31;28.57;;;14.57;;
34200;SDS011;20469;55.638;37.670;2023-12-07T06:31:04;30.73;;;14.07;;
34200;SDS011;20469;55.638;37.670;2023-12-07T06:33:36;26.60;;;13.70;;
34200;SDS011;20469;55.638;37.670;2023-12-07T06:36:03;29.30;;;14.67;;
34200;SDS011;20469;55.638;37.670;2023-12-07T06:38:31;30.87;;;14.47;;
34200;SDS011;20469;55.638;37.670;2023-12-07T06:40:59;29.23;;;14.40;;
34200;SDS011;20469;55.638;37.670;2023-12-07T06:43:27;35.50;;;15.83;;
34200;SDS011;20469;55.638;37.670;2023-12-07T06:45:55;29.23;;;14.73;;
34200;SDS011;20469;55.638;37.670;2023-12-07T06:48:23;30.33;;;14.37;;
34200;SDS011;20469;55.638;37.670;2023-12-07T06:50:50;30.27;;;14.33;;
34200;SDS011;20469;55.638;37.670;2023-12-07T06:53:18;31.23;;;16.70;;
34200;SDS011;20469;55.638;37.670;2023-12-07T06:55:46;26.10;;;13.27;;
34200;SDS011;20469;55.638;37.670;2023-12-07T06:58:14;28.87;;;15.37;;
34200;SDS011;20469;55.638;37.670;2023-12-07T07:00:42;26.53;;;13.33;;
34200;SDS011;20469;55.638;37.670;2023-12-07T07:03:09;26.87;;;13.63;;
34200;SDS011;20469;55.638;37.670;2023-12-07T07:05:37;29.93;;;14.60;;
34200;SDS011;20469;55.638;37.670;2023-12-07T07:08:06;28.97;;;13.30;;
34200;SDS011;20469;55.638;37.670;2023-12-07T07:10:37;27.30;;;13.33;;
34200;SDS011;20469;55.638;37.670;2023-12-07T07:13:04;30.13;;;13.97;;
34200;SDS011;20469;55.638;37.670;2023-12-07T07:15:32;28.27;;;13.87;;
34200;SDS011;20469;55.638;37.670;2023-12-07T07:18:00;27.33;;;13.43;;
34200;SDS011;20469;55.638;37.670;2023-12-07T07:20:28;27.63;;;14.23;;
34200;SDS011;20469;55.638;37.670;2023-12-07T07:22:56;29.93;;;14.80;;
34200;SDS011;20469;55.638;37.670;2023-12-07T07:25:24;32.17;;;15.10;;
34200;SDS011;20469;55.638;37.670;2023-12-07T07:27:51;32.53;;;14.03;;
34200;SDS011;20469;55.638;37.670;2023-12-07T07:30:21;32.30;;;15.30;;
34200;SDS011;20469;55.638;37.670;2023-12-07T07:32:49;36.70;;;15.87;;
34200;SDS011;20469;55.638;37.670;2023-12-07T07:35:17;28.83;;;14.40;;
34200;SDS011;20469;55.638;37.670;2023-12-07T07:37:45;29.47;;;13.93;;
34200;SDS011;20469;55.638;37.670;2023-12-07T07:40:13;30.90;;;15.53;;
34200;SDS011;20469;55.638;37.670;2023-12-07T07:42:41;30.47;;;14.87;;
34200;SDS011;20469;55.638;37.670;2023-12-07T07:45:09;30.93;;;15.27;;
34200;SDS011;20469;55.638;37.670;2023-12-07T07:47:37;31.87;;;16.13;;
34200;SDS011;20469;55.638;37.670;2023-12-07T07:50:05;33.33;;;15.27;;
34200;SDS011;20469;55.638;37.670;2023-12-07T07:52:34;32.30;;;14.67;;
34200;SDS011;20469;55.638;37.670;2023-12-07T07:55:20;31.93;;;14.17;;
34200;SDS011;20469;55.638;37.670;2023-12-07T07:57:48;26.40;;;13.33;;
34200;SDS011;20469;55.638;37.670;2023-12-07T08:00:16;29.30;;;15.60;;
34200;SDS011;20469;55.638;37.670;2023-12-07T08:02:44;27.10;;;13.63;;
34200;SDS011;20469;55.638;37.670;2023-12-07T08:05:12;30.67;;;14.20;;
34200;SDS011;20469;55.638;37.670;2023-12-07T08:07:39;31.17;;;14.90;;
34200;SDS011;20469;55.638;37.670;2023-12-07T08:10:07;30.47;;;15.77;;
34200;SDS011;20469;55.638;37.670;2023-12-07T08:12:36;29.60;;;15.00;;
34200;SDS011;20469;55.638;37.670;2023-12-07T08:15:04;30.53;;;14.63;;
34200;SDS011;20469;55.638;37.670;2023-12-07T08:17:32;31.40;;;15.10;;
34200;SDS011;20469;55.638;37.670;2023-12-07T08:19:59;30.03;;;15.53;;
34200;SDS011;20469;55.638;37.670;2023-12-07T08:22:29;25.93;;;14.23;;
34200;SDS011;20469;55.638;37.670;2023-12-07T08:24:57;27.63;;;14.77;;
34200;SDS011;20469;55.638;37.670;2023-12-07T08:27:37;27.17;;;13.83;;
34200;SDS011;20469;55.638;37.670;2023-12-07T08:30:05;29.00;;;14.60;;
34200;SDS011;20469;55.638;37.670;2023-12-07T08:32:33;30.70;;;15.13;;
34200;SDS011;20469;55.638;37.670;2023-12-07T08:35:01;27.20;;;14.30;;
34200;SDS011;20469;55.638;37.670;2023-12-07T08:37:29;25.93;;;13.93;;
34200;SDS011;20469;55.638;37.670;2023-12-07T08:39:57;28.37;;;13.87;;
34200;SDS011;20469;55.638;37.670;2023-12-07T08:42:25;26.53;;;14.23;;
34200;SDS011;20469;55.638;37.670;2023-12-07T08:44:58;24.27;;;13.03;;
34200;SDS011;20469;55.638;37.670;2023-12-07T08:47:26;24.70;;;14.00;;
34200;SDS011;20469;55.638;37.670;2023-12-07T08:49:55;23.83;;;13.73;;
34200;SDS011;20469;55.638;37.670;2023-12-07T08:52:23;27.43;;;14.37;;
34200;SDS011;20469;55.638;37.670;2023-12-07T08:55:07;27.50;;;14.43;;
34200;SDS011;20469;55.638;37.670;2023-12-07T08:57:35;24.83;;;13.27;;
34200;SDS011;20469;55.638;37.670;2023-12-07T09:00:02;26.43;;;13.63;;
34200;SDS011;20469;55.638;37.670;2023-12-07T09:02:30;32.17;;;15.23;;
34200;SDS011;20469;55.638;37.670;2023-12-07T09:05:12;25.60;;;13.80;;
34200;SDS011;20469;55.638;37.670;2023-12-07T09:07:40;28.30;;;13.73;;
34200;SDS011;20469;55.638;37.670;2023-12-07T09:10:07;26.30;;;13.77;;
34200;SDS011;20469;55.638;37.670;2023-12-07T09:12:36;24.70;;;13.40;;
34200;SDS011;20469;55.638;37.670;2023-12-07T09:15:05;31.93;;;14.80;;
34200;SDS011;20469;55.638;37.670;2023-12-07T09:17:40;26.00;;;14.13;;
34200;SDS011;20469;55.638;37.670;2023-12-07T09:20:09;25.40;;;13.63;;
34200;SDS011;20469;55.638;37.670;2023-12-07T09:22:44;25.60;;;13.77;;
34200;SDS011;20469;55.638;37.670;2023-12-07T09:25:14;27.25;;;13.13;;
34200;SDS011;20469;55.638;37.670;2023-12-07T09:27:44;24.30;;;12.70;;
34200;SDS011;20469;55.638;37.670;2023-12-07T09:30:12;25.37;;;14.20;;
34200;SDS011;20469;55.638;37.670;2023-12-07T09:32:40;28.07;;;15.40;;
34200;SDS011;20469;55.638;37.670;2023-12-07T09:35:11;25.30;;;13.97;;
34200;SDS011;20469;55.638;37.670;2023-12-07T09:37:50;28.27;;;15.07;;
34200;SDS011;20469;55.638;37.670;2023-12-07T09:40:19;28.70;;;15.13;;
34200;SDS011;20469;55.638;37.670;2023-12-07T09:42:48;31.40;;;15.63;;
34200;SDS011;20469;55.638;37.670;2023-12-07T09:45:17;27.60;;;15.57;;
34200;SDS011;20469;55.638;37.670;2023-12-07T09:47:50;27.63;;;13.83;;
34200;SDS011;20469;55.638;37.670;2023-12-07T09:50:19;24.50;;;13.33;;
34200;SDS011;20469;55.638;37.670;2023-12-07T09:52:50;24.60;;;13.57;;
34200;SDS011;20469;55.638;37.670;2023-12-07T09:55:33;25.77;;;13.70;;
34200;SDS011;20469;55.638;37.670;2023-12-07T09:58:05;25.83;;;13.53;;
34200;SDS011;20469;55.638;37.670;2023-12-07T10:00:35;26.70;;;14.23;;
34200;SDS011;20469;55.638;37.670;2023-12-07T10:03:04;27.80;;;13.83;;
34200;SDS011;20469;55.638;37.670;2023-12-07T10:05:55;22.02;;;12.48;;
34200;SDS011;20469;55.638;37.670;2023-12-07T10:08:30;22.07;;;12.17;;
34200;SDS011;20469;55.638;37.670;2023-12-07T10:11:16;22.47;;;12.53;;
34200;SDS011;20469;55.638;37.670;2023-12-07T10:13:45;21.93;;;12.43;;
34200;SDS011;20469;55.638;37.670;2023-12-07T10:16:14;24.67;;;13.03;;
34200;SDS011;20469;55.638;37.670;2023-12-07T10:18:43;22.67;;;13.03;;
34200;SDS011;20469;55.638;37.670;2023-12-07T10:21:12;22.73;;;12.53;;
34200;SDS011;20469;55.638;37.670;2023-12-07T10:23:41;22.70;;;12.67;;
34200;SDS011;20469;55.638;37.670;2023-12-07T10:26:16;23.27;;;13.07;;
34200;SDS011;20469;55.638;37.670;2023-12-07T10:28:48;26.00;;;14.35;;
34200;SDS011;20469;55.638;37.670;2023-12-07T10:31:20;21.30;;;12.80;;
34200;SDS011;20469;55.638;37.670;2023-12-07T10:33:49;21.50;;;13.48;;
34200;SDS011;20469;55.638;37.670;2023-12-07T10:36:17;21.48;;;13.70;;
34200;SDS011;20469;55.638;37.670;2023-12-07T10:38:45;19.00;;;12.80;;
34200;SDS011;20469;55.638;37.670;2023-12-07T10:41:17;26.52;;;12.68;;
34200;SDS011;20469;55.638;37.670;2023-12-07T10:43:46;17.42;;;11.90;;
34200;SDS011;20469;55.638;37.670;2023-12-07T10:46:15;17.70;;;12.05;;
34200;SDS011;20469;55.638;37.670;2023-12-07T10:48:46;20.33;;;12.90;;
34200;SDS011;20469;55.638;37.670;2023-12-07T10:51:23;16.33;;;11.35;;
34200;SDS011;20469;55.638;37.670;2023-12-07T10:53:52;17.75;;;11.60;;
34200;SDS011;20469;55.638;37.670;2023-12-07T10:56:43;18.42;;;12.02;;
34200;SDS011;20469;55.638;37.670;2023-12-07T10:59:09;19.52;;;11.25;;
34200;SDS011;20469;55.638;37.670;2023-12-07T11:01:45;18.50;;;12.02;;
34200;SDS011;20469;55.638;37.670;2023-12-07T11:04:14;18.13;;;11.07;;
34200;SDS011;20469;55.638;37.670;2023-12-07T11:06:42;16.42;;;10.63;;
34200;SDS011;20469;55.638;37.670;2023-12-07T11:09:15;19.40;;;11.25;;
34200;SDS011;20469;55.638;37.670;2023-12-07T11:11:55;17.80;;;10.75;;
34200;SDS011;20469;55.638;37.670;2023-12-07T11:14:24;20.57;;;12.47;;
34200;SDS011;20469;55.638;37.670;2023-12-07T11:16:53;18.97;;;11.27;;
34200;SDS011;20469;55.638;37.670;2023-12-07T11:22:06;19.60;;;11.40;;
34200;SDS011;20469;55.638;37.670;2023-12-07T11:24:35;22.40;;;12.83;;
34200;SDS011;20469;55.638;37.670;2023-12-07T11:27:03;20.73;;;11.80;;
34200;SDS011;20469;55.638;37.670;2023-12-07T11:29:31;18.13;;;10.63;;
34200;SDS011;20469;55.638;37.670;2023-12-07T11:32:02;18.77;;;11.40;;
34200;SDS011;20469;55.638;37.670;2023-12-07T11:34:43;23.27;;;12.00;;
34200;SDS011;20469;55.638;37.670;2023-12-07T11:37:14;22.67;;;12.50;;
34200;SDS011;20469;55.638;37.670;2023-12-07T11:39:43;18.77;;;11.40;;
34200;SDS011;20469;55.638;37.670;2023-12-07T11:42:16;22.17;;;12.85;;
34200;SDS011;20469;55.638;37.670;2023-12-07T11:44:47;22.07;;;11.90;;
34200;SDS011;20469;55.638;37.670;2023-12-07T11:47:16;22.13;;;12.23;;
34200;SDS011;20469;55.638;37.670;2023-12-07T11:49:45;21.63;;;12.23;;
34200;SDS011;20469;55.638;37.670;2023-12-07T11:52:13;23.17;;;12.10;;
34200;SDS011;20469;55.638;37.670;2023-12-07T11:54:48;21.77;;;12.83;;
34200;SDS011;20469;55.638;37.670;2023-12-07T11:57:17;21.50;;;11.87;;
34200;SDS011;20469;55.638;37.670;2023-12-07T11:59:45;21.93;;;12.33;;
34200;SDS011;20469;55.638;37.670;2023-12-07T12:02:16;22.33;;;12.37;;
34200;SDS011;20469;55.638;37.670;2023-12-07T12:04:44;22.13;;;11.43;;
34200;SDS011;20469;55.638;37.670;2023-12-07T12:07:12;21.47;;;11.63;;
34200;SDS011;20469;55.638;37.670;2023-12-07T12:09:39;22.97;;;12.47;;
34200;SDS011;20469;55.638;37.670;2023-12-07T12:12:07;23.70;;;12.73;;
34200;SDS011;20469;55.638;37.670;2023-12-07T12:14:35;25.10;;;12.37;;
34200;SDS011;20469;55.638;37.670;2023-12-07T12:17:03;24.37;;;12.57;;
34200;SDS011;20469;55.638;37.670;2023-12-07T12:19:32;24.27;;;12.50;;
34200;SDS011;20469;55.638;37.670;2023-12-07T12:22:03;23.10;;;12.43;;
34200;SDS011;20469;55.638;37.670;2023-12-07T12:24:35;23.02;;;12.98;;
34200;SDS011;20469;55.638;37.670;2023-12-07T12:27:03;26.13;;;14.00;;
34200;SDS011;20469;55.638;37.670;2023-12-07T12:29:32;24.53;;;13.47;;
34200;SDS011;20469;55.638;37.670;2023-12-07T12:32:04;26.77;;;13.03;;
34200;SDS011;20469;55.638;37.670;2023-12-07T12:34:35;22.40;;;12.40;;
34200;SDS011;20469;55.638;37.670;2023-12-07T12:37:03;25.10;;;13.47;;
34200;SDS011;20469;55.638;37.670;2023-12-07T12:39:36;27.40;;;14.37;;
34200;SDS011;20469;55.638;37.670;2023-12-07T12:42:03;23.33;;;12.87;;
34200;SDS011;20469;55.638;37.670;2023-12-07T12:44:32;27.50;;;13.73;;
34200;SDS011;20469;55.638;37.670;2023-12-07T12:47:07;23.40;;;12.27;;
34200;SDS011;20469;55.638;37.670;2023-12-07T12:49:37;25.30;;;13.47;;
34200;SDS011;20469;55.638;37.670;2023-12-07T12:52:14;23.03;;;12.60;;
34200;SDS011;20469;55.638;37.670;2023-12-07T12:54:43;25.60;;;12.75;;
34200;SDS011;20469;55.638;37.670;2023-12-07T12:57:11;29.90;;;15.40;;
34200;SDS011;20469;55.638;37.670;2023-12-07T12:59:40;23.23;;;12.47;;
34200;SDS011;20469;55.638;37.670;2023-12-07T13:02:08;27.77;;;13.23;;
34200;SDS011;20469;55.638;37.670;2023-12-07T13:04:37;23.90;;;12.53;;
34200;SDS011;20469;55.638;37.670;2023-12-07T13:07:08;24.15;;;12.10;;
34200;SDS011;20469;55.638;37.670;2023-12-07T13:09:37;21.97;;;11.60;;
34200;SDS011;20469;55.638;37.670;2023-12-07T13:12:05;24.03;;;12.03;;
34200;SDS011;20469;55.638;37.670;2023-12-07T13:14:33;24.10;;;12.10;;
34200;SDS011;20469;55.638;37.670;2023-12-07T13:17:06;25.90;;;12.13;;
34200;SDS011;20469;55.638;37.670;2023-12-07T13:19:37;20.67;;;11.87;;
34200;SDS011;20469;55.638;37.670;2023-12-07T13:22:04;22.00;;;11.37;;
34200;SDS011;20469;55.638;37.670;2023-12-07T13:24:33;24.27;;;12.53;;
34200;SDS011;20469;55.638;37.670;2023-12-07T13:27:01;23.80;;;11.97;;
34200;SDS011;20469;55.638;37.670;2023-12-07T13:29:29;20.80;;;11.73;;
34200;SDS011;20469;55.638;37.670;2023-12-07T13:32:05;20.57;;;10.93;;
34200;SDS011;20469;55.638;37.670;2023-12-07T13:34:33;21.50;;;11.63;;
34200;SDS011;20469;55.638;37.670;2023-12-07T13:37:02;22.13;;;11.33;;
34200;SDS011;20469;55.638;37.670;2023-12-07T13:39:29;22.83;;;12.03;;
34200;SDS011;20469;55.638;37.670;2023-12-07T13:41:58;22.47;;;10.83;;
34200;SDS011;20469;55.638;37.670;2023-12-07T13:44:31;21.47;;;12.03;;
34200;SDS011;20469;55.638;37.670;2023-12-07T13:47:00;22.47;;;11.03;;
34200;SDS011;20469;55.638;37.670;2023-12-07T13:49:28;21.67;;;11.97;;
34200;SDS011;20469;55.638;37.670;2023-12-07T13:52:01;19.50;;;11.02;;
34200;SDS011;20469;55.638;37.670;2023-12-07T13:54:38;20.23;;;10.87;;
34200;SDS011;20469;55.638;37.670;2023-12-07T13:57:22;21.00;;;11.00;;
34200;SDS011;20469;55.638;37.670;2023-12-07T13:59:54;20.13;;;10.20;;
34200;SDS011;20469;55.638;37.670;2023-12-07T14:02:22;19.80;;;10.83;;
34200;SDS011;20469;55.638;37.670;2023-12-07T14:04:50;21.37;;;10.20;;
34200;SDS011;20469;55.638;37.670;2023-12-07T14:07:19;21.33;;;11.17;;
34200;SDS011;20469;55.638;37.670;2023-12-07T14:09:48;18.00;;;10.43;;
34200;SDS011;20469;55.638;37.670;2023-12-07T14:12:24;19.50;;;10.63;;
34200;SDS011;20469;55.638;37.670;2023-12-07T14:14:53;20.13;;;10.80;;
34200;SDS011;20469;55.638;37.670;2023-12-07T14:17:22;17.60;;;10.13;;
34200;SDS011;20469;55.638;37.670;2023-12-07T14:19:53;17.17;;;9.93;;
34200;SDS011;20469;55.638;37.670;2023-12-07T14:22:36;18.23;;;10.93;;